createdAt,value
2018-01-06T00:00:14.327Z,2.00
2018-01-06T00:02:41.900Z,1.80
2018-01-06T00:05:09.431Z,2.40
2018-01-06T00:07:37.753Z,3.65
2018-01-06T00:10:05.297Z,2.37
2018-01-06T00:12:32.854Z,2.22
2018-01-06T00:15:00.405Z,2.12
2018-01-06T00:17:27.918Z,3.22
2018-01-06T00:19:55.465Z,2.30
2018-01-06T00:22:23.023Z,2.42
2018-01-06T00:24:50.556Z,2.60
2018-01-06T00:27:18.074Z,1.85
2018-01-06T00:29:46.376Z,2.83
2018-01-06T00:32:13.948Z,2.37
2018-01-06T00:34:41.484Z,2.58
2018-01-06T00:37:09.762Z,2.50
2018-01-06T00:39:38.022Z,2.70
2018-01-06T00:42:06.340Z,2.85
2018-01-06T00:44:33.875Z,2.58
2018-01-06T00:47:02.161Z,2.50
2018-01-06T00:49:29.704Z,2.30
2018-01-06T00:51:58.028Z,2.58
2018-01-06T00:54:25.559Z,2.78
2018-01-06T00:56:53.070Z,4.05
2018-01-06T00:59:20.561Z,3.40
2018-01-06T01:01:48.842Z,4.35
2018-01-06T01:04:17.116Z,4.22
2018-01-06T01:06:45.378Z,2.42
2018-01-06T01:09:12.947Z,5.00
2018-01-06T01:11:41.206Z,2.83
2018-01-06T01:14:08.722Z,2.55
2018-01-06T01:16:36.226Z,2.78
2018-01-06T01:19:03.738Z,2.83
2018-01-06T01:21:31.234Z,2.95
2018-01-06T01:23:58.746Z,2.40
2018-01-06T01:26:26.238Z,2.97
2018-01-06T01:28:53.755Z,2.60
2018-01-06T01:31:21.255Z,3.30
2018-01-06T01:33:48.765Z,2.40
2018-01-06T01:36:17.025Z,2.20
2018-01-06T01:38:45.323Z,2.65
2018-01-06T01:41:12.825Z,2.70
2018-01-06T01:43:40.346Z,4.20
2018-01-06T01:46:07.842Z,2.55
2018-01-06T01:48:35.357Z,2.80
2018-01-06T01:51:02.853Z,2.58
2018-01-06T01:53:30.370Z,3.30
2018-01-06T01:55:58.626Z,2.60
2018-01-06T01:58:26.149Z,1.95
2018-01-06T02:00:53.641Z,6.70
2018-01-06T02:03:21.158Z,2.30
2018-01-06T02:05:48.649Z,2.37
2018-01-06T02:08:16.159Z,2.30
2018-01-06T02:10:43.654Z,2.28
2018-01-06T02:13:11.169Z,3.10
2018-01-06T02:15:38.665Z,2.50
2018-01-06T02:18:06.178Z,2.10
2018-01-06T02:20:34.437Z,4.90
2018-01-06T02:23:02.714Z,2.30
2018-01-06T02:25:30.974Z,2.47
2018-01-06T02:27:58.491Z,2.45
2018-01-06T02:30:25.986Z,2.45
2018-01-06T02:32:53.499Z,2.45
2018-01-06T02:35:21.025Z,3.30
2018-01-06T02:37:49.312Z,2.30
2018-01-06T02:40:17.582Z,3.00
2018-01-06T02:42:45.861Z,3.87
2018-01-06T02:45:14.121Z,6.43
2018-01-06T02:47:41.616Z,3.15
2018-01-06T02:50:09.130Z,2.90
2018-01-06T02:52:38.131Z,3.65
2018-01-06T02:55:05.654Z,3.78
2018-01-06T02:57:33.154Z,3.40
2018-01-06T03:00:00.674Z,3.00
2018-01-06T03:02:28.935Z,3.30
2018-01-06T03:04:56.453Z,3.00
2018-01-06T03:07:23.951Z,3.40
2018-01-06T03:09:51.461Z,3.92
2018-01-06T03:12:18.955Z,3.08
2018-01-06T03:14:46.478Z,3.87
2018-01-06T03:17:13.975Z,3.42
2018-01-06T03:19:41.486Z,2.85
2018-01-06T03:22:08.996Z,2.60
2018-01-06T03:24:36.522Z,5.20
2018-01-06T03:27:04.014Z,3.90
2018-01-06T03:29:31.522Z,3.25
2018-01-06T03:31:59.018Z,3.92
2018-01-06T03:34:27.298Z,2.70
2018-01-06T03:36:54.794Z,7.68
2018-01-06T03:39:22.306Z,3.20
2018-01-06T03:41:50.565Z,3.08
2018-01-06T03:44:18.078Z,3.12
2018-01-06T03:46:45.584Z,3.53
2018-01-06T03:49:13.870Z,4.75
2018-01-06T03:51:42.138Z,3.55
2018-01-06T03:54:09.660Z,2.83
2018-01-06T03:56:37.159Z,3.55
2018-01-06T03:59:05.492Z,2.92
2018-01-06T04:01:32.990Z,3.78
2018-01-06T04:04:00.490Z,2.95
2018-01-06T04:06:28.007Z,2.97
2018-01-06T04:08:55.506Z,3.30
2018-01-06T04:11:23.026Z,4.37
2018-01-06T04:13:50.519Z,3.00
2018-01-06T04:16:18.794Z,4.62
2018-01-06T04:18:46.296Z,3.30
2018-01-06T04:21:13.806Z,4.20
2018-01-06T04:23:41.327Z,3.45
2018-01-06T04:26:08.842Z,3.25
2018-01-06T04:28:36.333Z,3.12
2018-01-06T04:31:03.842Z,3.40
2018-01-06T04:33:31.341Z,3.25
2018-01-06T04:35:58.854Z,2.92
2018-01-06T04:38:27.142Z,3.00
2018-01-06T04:40:54.655Z,3.67
2018-01-06T04:43:22.149Z,3.62
2018-01-06T04:45:50.432Z,3.20
2018-01-06T04:48:17.925Z,3.15
2018-01-06T04:50:45.439Z,4.15
2018-01-06T04:53:13.698Z,4.30
2018-01-06T04:55:41.210Z,5.10
2018-01-06T04:58:08.702Z,4.40
2018-01-06T05:00:36.222Z,4.60
2018-01-06T05:03:03.722Z,4.70
2018-01-06T05:05:31.238Z,5.40
2018-01-06T05:07:58.729Z,5.00
2018-01-06T05:10:26.242Z,5.55
2018-01-06T05:12:53.737Z,4.60
2018-01-06T05:15:21.246Z,4.40
2018-01-06T05:17:49.510Z,4.30
2018-01-06T05:20:17.785Z,4.72
2018-01-06T05:22:45.283Z,4.18
2018-01-06T05:25:12.794Z,3.70
2018-01-06T05:27:40.285Z,3.37
2018-01-06T05:30:07.799Z,4.93
2018-01-06T05:32:35.299Z,3.55
2018-01-06T05:35:03.582Z,3.90
2018-01-06T05:37:31.073Z,3.70
2018-01-06T05:39:58.582Z,3.85
2018-01-06T05:42:26.848Z,5.85
2018-01-06T05:44:54.366Z,4.10
2018-01-06T05:47:21.862Z,5.05
2018-01-06T05:49:49.386Z,10.30
2018-01-06T05:52:16.905Z,5.03
2018-01-06T05:54:45.162Z,4.55
2018-01-06T05:57:12.678Z,4.75
2018-01-06T05:59:40.178Z,4.97
2018-01-06T06:02:07.690Z,5.65
2018-01-06T06:04:35.190Z,4.45
2018-01-06T06:07:02.706Z,10.63
2018-01-06T06:09:30.204Z,5.00
2018-01-06T06:11:57.713Z,8.90
2018-01-06T06:14:25.211Z,5.20
2018-01-06T06:16:52.722Z,6.65
2018-01-06T06:19:20.214Z,8.73
2018-01-06T06:21:47.730Z,9.20
2018-01-06T06:24:15.238Z,8.57
2018-01-06T06:26:42.757Z,9.98
2018-01-06T06:29:10.263Z,10.35
2018-01-06T06:31:37.827Z,8.38
2018-01-06T06:34:05.295Z,13.27
2018-01-06T06:36:32.802Z,9.63
2018-01-06T06:39:00.307Z,7.90
2018-01-06T06:41:27.830Z,10.82
2018-01-06T06:43:55.323Z,8.82
2018-01-06T06:46:22.838Z,10.23
2018-01-06T06:48:50.335Z,8.23
2018-01-06T06:51:17.854Z,8.10
2018-01-06T06:53:45.353Z,10.77
2018-01-06T06:56:12.881Z,11.00
2018-01-06T06:58:40.378Z,9.10
2018-01-06T07:01:07.894Z,10.23
2018-01-06T07:03:35.406Z,9.77
2018-01-06T07:06:02.918Z,7.90
2018-01-06T07:08:30.410Z,8.65
2018-01-06T07:10:57.926Z,8.20
2018-01-06T07:13:25.433Z,10.63
2018-01-06T07:15:52.946Z,8.90
2018-01-06T07:18:20.442Z,9.93
2018-01-06T07:20:47.966Z,11.32
2018-01-06T07:23:15.462Z,9.45
2018-01-06T07:25:44.489Z,10.02
2018-01-06T07:28:12.749Z,10.07
2018-01-06T07:30:40.247Z,7.72
2018-01-06T07:33:07.773Z,10.25
2018-01-06T07:35:36.040Z,7.80
2018-01-06T07:38:03.558Z,8.20
2018-01-06T07:40:31.065Z,6.93
2018-01-06T07:42:59.345Z,7.45
2018-01-06T07:45:27.606Z,10.43
2018-01-06T07:47:55.125Z,10.73
2018-01-06T07:50:22.622Z,6.50
2018-01-06T07:52:50.137Z,6.80
2018-01-06T07:55:17.643Z,6.00
2018-01-06T07:57:45.154Z,5.90
2018-01-06T08:00:12.654Z,5.80
2018-01-06T08:02:40.172Z,5.53
2018-01-06T08:05:07.694Z,5.65
2018-01-06T08:07:35.978Z,5.78
2018-01-06T08:10:04.238Z,5.65
2018-01-06T08:12:31.750Z,5.80
2018-01-06T08:14:59.245Z,7.78
2018-01-06T08:17:27.077Z,6.78
2018-01-06T08:19:54.578Z,5.60
2018-01-06T08:22:22.092Z,8.63
2018-01-06T08:24:49.586Z,6.70
2018-01-06T08:27:17.134Z,7.10
2018-01-06T08:29:44.630Z,5.80
2018-01-06T08:32:12.910Z,7.18
2018-01-06T08:34:41.170Z,6.18
2018-01-06T08:37:08.686Z,7.45
2018-01-06T08:39:36.180Z,7.05
2018-01-06T08:42:03.698Z,9.75
2018-01-06T08:44:31.194Z,6.75
2018-01-06T08:46:58.707Z,7.47
2018-01-06T08:49:26.202Z,6.40
2018-01-06T08:51:53.714Z,8.60
2018-01-06T08:54:21.223Z,9.57
2018-01-06T08:56:48.750Z,9.23
2018-01-06T08:59:16.242Z,8.75
2018-01-06T09:01:43.737Z,11.02
2018-01-06T09:04:12.022Z,10.55
2018-01-06T09:06:39.530Z,9.35
2018-01-06T09:09:07.042Z,7.72
2018-01-06T09:11:34.541Z,9.15
2018-01-06T09:14:02.058Z,9.43
2018-01-06T09:16:29.574Z,8.82
2018-01-06T09:18:57.099Z,15.55
2018-01-06T09:21:24.614Z,15.05
2018-01-06T09:23:52.902Z,14.38
2018-01-06T09:26:21.163Z,10.60
2018-01-06T09:28:49.451Z,12.88
2018-01-06T09:31:17.712Z,8.63
2018-01-06T09:33:45.222Z,8.73
2018-01-06T09:36:12.721Z,7.28
2018-01-06T09:38:40.244Z,9.65
2018-01-06T09:41:07.739Z,7.65
2018-01-06T09:43:35.254Z,9.27
2018-01-06T09:46:02.770Z,35.13
2018-01-06T09:48:31.052Z,10.73
2018-01-06T09:50:59.318Z,11.35
2018-01-06T09:53:26.826Z,9.20
2018-01-06T09:55:54.353Z,8.00
2018-01-06T09:58:22.633Z,12.90
2018-01-06T10:00:50.899Z,7.05
2018-01-06T10:03:19.723Z,8.27
2018-01-06T10:05:47.222Z,8.73
2018-01-06T10:08:14.718Z,7.32
2018-01-06T10:10:42.994Z,6.32
2018-01-06T10:13:11.259Z,7.68
2018-01-06T10:15:39.533Z,8.32
2018-01-06T10:18:07.797Z,7.15
2018-01-06T10:20:35.316Z,5.80
2018-01-06T10:23:02.814Z,8.38
2018-01-06T10:25:30.322Z,6.12
2018-01-06T10:27:57.820Z,6.00
2018-01-06T10:30:25.330Z,4.85
2018-01-06T10:32:52.826Z,4.85
2018-01-06T10:35:20.338Z,4.20
2018-01-06T10:37:47.843Z,5.25
2018-01-06T10:40:15.356Z,4.50
2018-01-06T10:42:43.622Z,4.18
2018-01-06T10:45:11.906Z,5.25
2018-01-06T10:47:39.426Z,4.43
2018-01-06T10:50:06.935Z,4.47
2018-01-06T10:52:34.431Z,4.35
2018-01-06T10:55:01.946Z,4.07
2018-01-06T10:57:29.460Z,4.60
2018-01-06T10:59:56.977Z,6.03
2018-01-06T11:02:24.486Z,3.75
2018-01-06T11:04:51.998Z,4.70
2018-01-06T11:07:19.622Z,3.78
2018-01-06T11:09:47.179Z,3.78
2018-01-06T11:12:14.774Z,3.65
2018-01-06T11:14:42.265Z,4.60
2018-01-06T11:17:09.787Z,4.10
2018-01-06T11:19:38.045Z,3.95
2018-01-06T11:22:06.321Z,4.47
2018-01-06T11:24:34.591Z,3.35
2018-01-06T11:27:02.104Z,3.35
2018-01-06T11:29:29.605Z,5.25
2018-01-06T11:31:57.118Z,3.90
2018-01-06T11:34:24.622Z,2.90
2018-01-06T11:36:52.218Z,4.15
2018-01-06T11:39:19.758Z,5.00
2018-01-06T11:41:48.067Z,4.90
2018-01-06T11:44:16.331Z,5.15
2018-01-06T11:46:43.864Z,5.55
2018-01-06T11:49:12.130Z,4.43
2018-01-06T11:51:39.650Z,3.95
2018-01-06T11:54:07.151Z,3.40
2018-01-06T11:56:34.673Z,4.12
2018-01-06T11:59:02.174Z,4.12
2018-01-06T12:01:29.695Z,4.55
2018-01-06T12:03:57.194Z,2.75
2018-01-06T12:06:24.710Z,3.10
2018-01-06T12:08:52.226Z,3.30
2018-01-06T12:11:20.493Z,4.18
2018-01-06T12:13:48.154Z,4.07
2018-01-06T12:16:15.650Z,3.00
2018-01-06T12:18:43.164Z,4.35
2018-01-06T12:21:10.675Z,3.05
2018-01-06T12:23:38.193Z,3.60
2018-01-06T12:26:05.690Z,3.90
2018-01-06T12:28:33.206Z,3.37
2018-01-06T12:31:00.707Z,3.10
2018-01-06T12:33:28.218Z,2.78
2018-01-06T12:35:55.719Z,2.58
2018-01-06T12:38:23.254Z,2.83
2018-01-06T12:40:51.518Z,3.00
2018-01-06T12:43:19.035Z,3.17
2018-01-06T12:45:46.537Z,2.40
2018-01-06T12:48:14.054Z,3.50
2018-01-06T12:50:41.554Z,2.35
2018-01-06T12:53:09.199Z,2.80
2018-01-06T12:55:36.702Z,3.47
2018-01-06T12:58:04.222Z,3.37
2018-01-06T13:00:31.722Z,2.80
2018-01-06T13:02:59.503Z,2.55
2018-01-06T13:05:27.006Z,2.37
2018-01-06T13:07:54.525Z,2.62
2018-01-06T13:10:22.018Z,3.60
2018-01-06T13:12:49.530Z,2.50
2018-01-06T13:15:17.071Z,2.50
2018-01-06T13:17:45.330Z,3.10
2018-01-06T13:20:12.842Z,4.30
2018-01-06T13:22:40.338Z,4.12
2018-01-06T13:25:07.851Z,2.55
2018-01-06T13:27:35.346Z,2.87
2018-01-06T13:30:02.867Z,10.65
2018-01-06T13:32:30.366Z,2.50
2018-01-06T13:34:57.881Z,7.20
2018-01-06T13:37:25.379Z,4.03
2018-01-06T13:39:52.890Z,2.35
2018-01-06T13:42:20.390Z,3.00
2018-01-06T13:44:47.910Z,3.17
2018-01-06T13:47:15.406Z,2.95
2018-01-06T13:49:42.962Z,2.53
2018-01-06T13:52:10.466Z,2.40
2018-01-06T13:54:38.741Z,2.58
2018-01-06T13:57:06.244Z,3.40
2018-01-06T13:59:33.761Z,3.30
2018-01-06T14:02:02.035Z,3.62
2018-01-06T14:04:29.555Z,3.22
2018-01-06T14:06:57.077Z,4.05
2018-01-06T14:09:24.592Z,3.70
2018-01-06T14:11:52.096Z,3.35
2018-01-06T14:14:19.626Z,2.20
2018-01-06T14:16:48.726Z,3.28
2018-01-06T14:19:17.015Z,2.83
2018-01-06T14:21:45.274Z,2.50
2018-01-06T14:24:12.814Z,3.10
2018-01-06T14:26:40.314Z,2.85
2018-01-06T14:29:07.886Z,2.80
2018-01-06T14:31:35.390Z,2.40
2018-01-06T14:34:02.928Z,2.50
2018-01-06T14:36:30.445Z,2.45
2018-01-06T14:38:58.710Z,2.80
2018-01-06T14:41:26.230Z,4.78
2018-01-06T14:43:53.829Z,2.70
2018-01-06T14:46:21.302Z,2.78
2018-01-06T14:48:49.590Z,2.65
2018-01-06T14:51:17.106Z,2.28
2018-01-06T14:53:44.607Z,3.10
2018-01-06T14:56:12.158Z,2.90
2018-01-06T14:58:40.415Z,5.32
2018-01-06T15:01:07.926Z,3.05
2018-01-06T15:03:35.450Z,2.20
2018-01-06T15:06:03.725Z,6.00
2018-01-06T15:08:31.986Z,3.42
2018-01-06T15:10:59.501Z,2.53
2018-01-06T15:13:27.005Z,3.80
2018-01-06T15:15:54.584Z,4.12
2018-01-06T15:18:22.848Z,4.10
2018-01-06T15:20:50.374Z,3.40
2018-01-06T15:23:17.921Z,5.35
2018-01-06T15:25:45.475Z,5.22
2018-01-06T15:28:13.015Z,4.18
2018-01-06T15:30:40.594Z,4.70
2018-01-06T15:33:08.128Z,5.07
2018-01-06T15:35:35.692Z,5.07
2018-01-06T15:38:03.186Z,4.78
2018-01-06T15:40:30.723Z,5.87
2018-01-06T15:42:58.255Z,6.70
2018-01-06T15:45:26.568Z,6.75
2018-01-06T15:47:54.120Z,5.70
2018-01-06T15:50:21.619Z,6.00
2018-01-06T15:52:49.131Z,7.40
2018-01-06T15:55:16.668Z,4.95
2018-01-06T15:57:44.985Z,8.23
2018-01-06T16:00:12.524Z,6.15
2018-01-06T16:02:40.070Z,6.43
2018-01-06T16:05:08.478Z,5.30
2018-01-06T16:07:35.998Z,5.78
2018-01-06T16:10:04.271Z,5.72
2018-01-06T16:12:31.829Z,4.60
2018-01-06T16:14:59.327Z,5.78
2018-01-06T16:17:27.151Z,7.32
2018-01-06T16:19:54.692Z,6.60
2018-01-06T16:22:22.422Z,8.60
2018-01-06T16:24:49.992Z,5.72
2018-01-06T16:27:17.518Z,7.70
2018-01-06T16:29:45.824Z,7.20
2018-01-06T16:32:13.401Z,6.47
2018-01-06T16:34:40.930Z,6.78
2018-01-06T16:37:08.504Z,8.57
2018-01-06T16:39:35.998Z,6.57
2018-01-06T16:42:03.511Z,6.00
2018-01-06T16:44:31.014Z,6.85
2018-01-06T16:46:58.525Z,6.20
2018-01-06T16:49:26.072Z,6.75
2018-01-06T16:51:53.602Z,7.00
2018-01-06T16:54:21.149Z,7.85
2018-01-06T16:56:48.662Z,7.70
2018-01-06T16:59:16.171Z,8.10
2018-01-06T17:01:43.737Z,9.23
2018-01-06T17:04:11.293Z,10.00
2018-01-06T17:06:38.833Z,9.10
2018-01-06T17:09:06.417Z,10.73
2018-01-06T17:11:33.920Z,9.07
2018-01-06T17:14:01.945Z,9.88
2018-01-06T17:16:29.510Z,11.02
2018-01-06T17:18:57.030Z,10.93
2018-01-06T17:21:24.576Z,13.88
2018-01-06T17:23:52.094Z,10.20
2018-01-06T17:26:19.631Z,13.95
2018-01-06T17:28:47.185Z,13.73
2018-01-06T17:31:15.488Z,12.02
2018-01-06T17:33:43.048Z,16.77
2018-01-06T17:36:10.555Z,12.65
2018-01-06T17:38:38.070Z,15.50
2018-01-06T17:41:05.571Z,12.48
2018-01-06T17:43:33.082Z,14.45
2018-01-06T17:46:00.586Z,14.02
2018-01-06T17:48:28.136Z,15.70
2018-01-06T17:50:55.692Z,17.37
2018-01-06T17:53:23.219Z,16.90
2018-01-06T17:55:50.782Z,15.15
2018-01-06T17:58:18.299Z,21.77
2018-01-06T18:00:45.849Z,21.70
2018-01-06T18:03:13.378Z,18.60
2018-01-06T18:05:41.680Z,22.08
2018-01-06T18:08:09.199Z,19.45
2018-01-06T18:10:36.732Z,21.50
2018-01-06T18:13:07.447Z,21.25
2018-01-06T18:15:34.946Z,23.55
2018-01-06T18:18:02.510Z,27.25
2018-01-06T18:20:30.007Z,27.67
2018-01-06T18:22:57.564Z,24.63
2018-01-06T18:25:25.109Z,20.60
2018-01-06T18:27:53.416Z,23.15
2018-01-06T18:30:20.965Z,22.80
2018-01-06T18:32:49.156Z,20.35
2018-01-06T18:35:16.663Z,22.30
2018-01-06T18:37:44.214Z,18.87
2018-01-06T18:40:11.748Z,22.70
2018-01-06T18:42:39.285Z,18.48
2018-01-06T18:45:06.826Z,22.17
2018-01-06T18:47:35.320Z,21.95
2018-01-06T18:50:02.886Z,22.00
2018-01-06T18:52:30.386Z,21.10
2018-01-06T18:54:57.966Z,22.33
2018-01-06T18:57:25.528Z,22.73
2018-01-06T18:59:53.873Z,20.73
2018-01-06T19:02:21.438Z,23.30
2018-01-06T19:04:49.020Z,21.62
2018-01-06T19:07:16.569Z,24.12
2018-01-06T19:09:44.133Z,21.33
2018-01-06T19:12:11.681Z,30.40
2018-01-06T19:14:39.236Z,25.62
2018-01-06T19:17:06.772Z,27.40
2018-01-06T19:19:34.290Z,26.85
2018-01-06T19:22:01.831Z,24.77
2018-01-06T19:24:29.405Z,25.83
2018-01-06T19:26:57.718Z,28.10
2018-01-06T19:29:25.297Z,29.12
2018-01-06T19:31:52.849Z,23.67
2018-01-06T19:34:20.524Z,25.40
2018-01-06T19:36:48.144Z,24.83
2018-01-06T19:39:16.962Z,24.15
2018-01-06T19:41:44.527Z,23.17
2018-01-06T19:44:12.038Z,26.12
2018-01-06T19:46:39.645Z,24.50
2018-01-06T19:49:07.188Z,23.73
2018-01-06T19:51:34.731Z,24.90
2018-01-06T19:54:03.061Z,21.48
2018-01-06T19:56:30.611Z,22.08
2018-01-06T19:58:58.185Z,23.50
2018-01-06T20:01:25.732Z,23.83
2018-01-06T20:03:53.301Z,24.50
2018-01-06T20:06:20.845Z,23.75
2018-01-06T20:08:48.389Z,25.42
2018-01-06T20:11:15.953Z,22.92
2018-01-06T20:13:43.505Z,24.92
2018-01-06T20:16:11.069Z,24.20
2018-01-06T20:18:38.621Z,25.27
2018-01-06T20:21:06.190Z,21.35
2018-01-06T20:23:33.750Z,25.55
2018-01-06T20:26:01.311Z,19.15
2018-01-06T20:28:28.857Z,21.52
2018-01-06T20:30:57.186Z,25.17
2018-01-06T20:33:24.743Z,23.62
2018-01-06T20:35:52.309Z,23.70
2018-01-06T20:38:19.873Z,25.90
2018-01-06T20:40:47.438Z,22.95
2018-01-06T20:43:14.991Z,26.60
2018-01-06T20:45:42.622Z,23.90
2018-01-06T20:48:10.203Z,24.60
2018-01-06T20:50:37.766Z,23.55
2018-01-06T20:53:05.317Z,24.30
2018-01-06T20:55:32.901Z,24.92
2018-01-06T20:58:00.446Z,26.55
2018-01-06T21:00:28.014Z,27.08
2018-01-06T21:02:55.585Z,32.97
2018-01-06T21:05:23.159Z,32.00
2018-01-06T21:07:51.653Z,37.30
2018-01-06T21:10:19.986Z,34.45
2018-01-06T21:12:47.562Z,39.15
2018-01-06T21:15:15.223Z,34.50
2018-01-06T21:17:42.849Z,30.08
2018-01-06T21:20:10.644Z,31.23
2018-01-06T21:22:38.189Z,31.15
2018-01-06T21:25:05.865Z,33.72
2018-01-06T21:27:33.429Z,35.38
2018-01-06T21:30:00.982Z,27.80
2018-01-06T21:32:28.535Z,26.30
2018-01-06T21:34:56.104Z,20.92
2018-01-06T21:37:23.660Z,23.60
2018-01-06T21:39:51.200Z,24.73
2018-01-06T21:42:18.973Z,27.75
2018-01-06T21:44:46.521Z,23.08
2018-01-06T21:47:14.105Z,25.65
2018-01-06T21:49:42.424Z,30.10
2018-01-06T21:52:10.753Z,27.40
2018-01-06T21:54:38.305Z,26.85
2018-01-06T21:57:05.873Z,36.35
2018-01-06T21:59:33.412Z,28.73
2018-01-06T22:02:00.977Z,26.48
2018-01-06T22:04:28.526Z,32.55
2018-01-06T22:06:56.105Z,26.25
2018-01-06T22:09:23.652Z,22.17
2018-01-06T22:11:51.249Z,24.48
2018-01-06T22:14:19.641Z,23.42
2018-01-06T22:16:47.201Z,20.98
2018-01-06T22:19:14.822Z,24.15
2018-01-06T22:21:42.400Z,20.42
2018-01-06T22:24:09.945Z,19.27
2018-01-06T22:26:37.517Z,19.73
2018-01-06T22:29:05.076Z,18.48
2018-01-06T22:31:32.641Z,19.50
2018-01-06T22:34:00.209Z,19.30
2018-01-06T22:36:27.769Z,19.77
2018-01-06T22:38:55.313Z,17.08
2018-01-06T22:41:22.989Z,18.00
2018-01-06T22:43:50.537Z,19.75
2018-01-06T22:46:18.083Z,28.10
2018-01-06T22:48:45.655Z,16.60
2018-01-06T22:51:13.209Z,18.70
2018-01-06T22:53:40.777Z,18.48
2018-01-06T22:56:08.334Z,17.77
2018-01-06T22:58:35.888Z,13.68
2018-01-06T23:01:03.433Z,12.88
2018-01-06T23:03:31.088Z,14.15
2018-01-06T23:05:58.713Z,15.38
2018-01-06T23:08:26.314Z,11.95
2018-01-06T23:10:55.259Z,13.07
2018-01-06T23:13:22.825Z,12.90
2018-01-06T23:15:50.369Z,12.80
2018-01-06T23:18:17.941Z,13.18
2018-01-06T23:20:45.490Z,11.90
2018-01-06T23:23:13.058Z,11.65
2018-01-06T23:25:40.614Z,11.40
2018-01-06T23:28:08.180Z,11.38
2018-01-06T23:30:35.721Z,11.05
2018-01-06T23:33:03.299Z,11.73
2018-01-06T23:35:30.837Z,13.38
2018-01-06T23:37:58.397Z,12.48
2018-01-06T23:40:25.966Z,13.62
2018-01-06T23:42:53.528Z,10.15
2018-01-06T23:45:21.070Z,11.23
2018-01-06T23:47:48.633Z,11.88
2018-01-06T23:50:16.181Z,10.82
2018-01-06T23:52:43.741Z,11.23
2018-01-06T23:55:11.288Z,14.57
2018-01-06T23:57:38.840Z,11.52
